sensor_id;sensor_type;location;lat;lon;timestamp;P1;durP1;ratioP1;P2;durP2;ratioP2
6860;SDS011;3469;47.060;15.460;2023-05-16T00:01:20;3.13;;;2.20;;
6860;SDS011;3469;47.060;15.460;2023-05-16T00:03:48;2.80;;;1.37;;
6860;SDS011;3469;47.060;15.460;2023-05-16T00:06:17;3.20;;;1.40;;
6860;SDS011;3469;47.060;15.460;2023-05-16T00:08:45;1.60;;;1.40;;
6860;SDS011;3469;47.060;15.460;2023-05-16T00:11:13;5.00;;;2.07;;
6860;SDS011;3469;47.060;15.460;2023-05-16T00:13:44;2.53;;;2.30;;
6860;SDS011;3469;47.060;15.460;2023-05-16T00:16:13;1.63;;;1.50;;
6860;SDS011;3469;47.060;15.460;2023-05-16T00:18:41;1.97;;;1.43;;
6860;SDS011;3469;47.060;15.460;2023-05-16T00:21:11;3.07;;;1.83;;
6860;SDS011;3469;47.060;15.460;2023-05-16T00:23:40;4.10;;;1.67;;
6860;SDS011;3469;47.060;15.460;2023-05-16T00:26:09;2.57;;;1.53;;
6860;SDS011;3469;47.060;15.460;2023-05-16T00:28:39;6.27;;;2.00;;
6860;SDS011;3469;47.060;15.460;2023-05-16T00:31:09;2.07;;;1.87;;
6860;SDS011;3469;47.060;15.460;2023-05-16T00:33:37;2.07;;;1.37;;
6860;SDS011;3469;47.060;15.460;2023-05-16T00:36:06;2.23;;;1.80;;
6860;SDS011;3469;47.060;15.460;2023-05-16T00:38:34;2.67;;;1.70;;
6860;SDS011;3469;47.060;15.460;2023-05-16T00:41:03;1.63;;;1.10;;
6860;SDS011;3469;47.060;15.460;2023-05-16T00:43:31;2.27;;;1.60;;
6860;SDS011;3469;47.060;15.460;2023-05-16T00:45:59;2.20;;;1.20;;
6860;SDS011;3469;47.060;15.460;2023-05-16T00:48:29;2.93;;;1.27;;
6860;SDS011;3469;47.060;15.460;2023-05-16T00:50:59;2.30;;;1.90;;
6860;SDS011;3469;47.060;15.460;2023-05-16T00:53:27;1.93;;;1.40;;
6860;SDS011;3469;47.060;15.460;2023-05-16T00:55:56;1.97;;;1.47;;
6860;SDS011;3469;47.060;15.460;2023-05-16T00:58:25;1.87;;;1.40;;
6860;SDS011;3469;47.060;15.460;2023-05-16T01:00:54;1.57;;;1.13;;
6860;SDS011;3469;47.060;15.460;2023-05-16T01:03:23;1.93;;;1.40;;
6860;SDS011;3469;47.060;15.460;2023-05-16T01:05:54;3.43;;;1.90;;
6860;SDS011;3469;47.060;15.460;2023-05-16T01:08:22;1.90;;;1.20;;
6860;SDS011;3469;47.060;15.460;2023-05-16T01:11:01;1.93;;;1.33;;
6860;SDS011;3469;47.060;15.460;2023-05-16T01:13:47;1.77;;;1.47;;
6860;SDS011;3469;47.060;15.460;2023-05-16T01:16:25;4.10;;;2.00;;
6860;SDS011;3469;47.060;15.460;2023-05-16T01:19:00;2.00;;;1.70;;
6860;SDS011;3469;47.060;15.460;2023-05-16T01:21:37;2.43;;;1.80;;
6860;SDS011;3469;47.060;15.460;2023-05-16T01:24:12;2.57;;;1.60;;
6860;SDS011;3469;47.060;15.460;2023-05-16T01:26:43;1.73;;;1.13;;
6860;SDS011;3469;47.060;15.460;2023-05-16T01:29:11;4.07;;;1.90;;
6860;SDS011;3469;47.060;15.460;2023-05-16T01:31:40;2.77;;;1.70;;
6860;SDS011;3469;47.060;15.460;2023-05-16T01:34:09;2.60;;;2.40;;
6860;SDS011;3469;47.060;15.460;2023-05-16T01:36:39;4.27;;;2.73;;
6860;SDS011;3469;47.060;15.460;2023-05-16T01:39:14;2.57;;;1.80;;
6860;SDS011;3469;47.060;15.460;2023-05-16T01:41:51;1.10;;;0.90;;
6860;SDS011;3469;47.060;15.460;2023-05-16T01:44:22;2.27;;;1.40;;
6860;SDS011;3469;47.060;15.460;2023-05-16T01:46:55;3.23;;;2.37;;
6860;SDS011;3469;47.060;15.460;2023-05-16T01:49:27;1.90;;;1.40;;
6860;SDS011;3469;47.060;15.460;2023-05-16T01:52:00;3.00;;;2.17;;
6860;SDS011;3469;47.060;15.460;2023-05-16T01:54:30;2.97;;;1.97;;
6860;SDS011;3469;47.060;15.460;2023-05-16T01:57:01;3.30;;;2.47;;
6860;SDS011;3469;47.060;15.460;2023-05-16T01:59:33;2.30;;;2.03;;
6860;SDS011;3469;47.060;15.460;2023-05-16T02:02:03;2.27;;;1.50;;
6860;SDS011;3469;47.060;15.460;2023-05-16T02:04:32;2.80;;;1.90;;
6860;SDS011;3469;47.060;15.460;2023-05-16T02:07:00;3.70;;;2.00;;
6860;SDS011;3469;47.060;15.460;2023-05-16T02:09:28;2.03;;;1.70;;
6860;SDS011;3469;47.060;15.460;2023-05-16T02:11:58;2.63;;;2.20;;
6860;SDS011;3469;47.060;15.460;2023-05-16T02:14:29;2.90;;;2.00;;
6860;SDS011;3469;47.060;15.460;2023-05-16T02:16:58;4.63;;;2.70;;
6860;SDS011;3469;47.060;15.460;2023-05-16T02:19:26;2.83;;;1.83;;
6860;SDS011;3469;47.060;15.460;2023-05-16T02:21:54;3.70;;;2.27;;
6860;SDS011;3469;47.060;15.460;2023-05-16T02:24:24;1.80;;;1.40;;
6860;SDS011;3469;47.060;15.460;2023-05-16T02:26:54;3.40;;;2.13;;
6860;SDS011;3469;47.060;15.460;2023-05-16T02:29:23;2.87;;;1.90;;
6860;SDS011;3469;47.060;15.460;2023-05-16T02:31:53;6.27;;;2.00;;
6860;SDS011;3469;47.060;15.460;2023-05-16T02:34:21;4.30;;;1.90;;
6860;SDS011;3469;47.060;15.460;2023-05-16T02:36:50;3.77;;;2.40;;
6860;SDS011;3469;47.060;15.460;2023-05-16T02:39:20;3.47;;;2.60;;
6860;SDS011;3469;47.060;15.460;2023-05-16T02:41:50;3.30;;;1.80;;
6860;SDS011;3469;47.060;15.460;2023-05-16T02:44:18;3.50;;;2.60;;
6860;SDS011;3469;47.060;15.460;2023-05-16T02:46:47;5.23;;;3.17;;
6860;SDS011;3469;47.060;15.460;2023-05-16T02:49:16;4.13;;;2.20;;
6860;SDS011;3469;47.060;15.460;2023-05-16T02:51:44;2.20;;;1.83;;
6860;SDS011;3469;47.060;15.460;2023-05-16T02:54:13;3.20;;;2.30;;
6860;SDS011;3469;47.060;15.460;2023-05-16T02:56:42;3.53;;;2.20;;
6860;SDS011;3469;47.060;15.460;2023-05-16T02:59:12;2.30;;;2.10;;
6860;SDS011;3469;47.060;15.460;2023-05-16T03:01:40;3.60;;;2.73;;
6860;SDS011;3469;47.060;15.460;2023-05-16T03:04:08;3.80;;;2.30;;
6860;SDS011;3469;47.060;15.460;2023-05-16T03:06:38;3.83;;;2.33;;
6860;SDS011;3469;47.060;15.460;2023-05-16T03:09:06;4.17;;;2.77;;
6860;SDS011;3469;47.060;15.460;2023-05-16T03:11:35;3.40;;;2.40;;
6860;SDS011;3469;47.060;15.460;2023-05-16T03:14:07;2.70;;;1.83;;
6860;SDS011;3469;47.060;15.460;2023-05-16T03:16:36;3.53;;;2.17;;
6860;SDS011;3469;47.060;15.460;2023-05-16T03:19:04;2.33;;;1.90;;
6860;SDS011;3469;47.060;15.460;2023-05-16T03:21:33;3.33;;;2.50;;
6860;SDS011;3469;47.060;15.460;2023-05-16T03:24:03;4.63;;;2.13;;
6860;SDS011;3469;47.060;15.460;2023-05-16T03:26:32;2.40;;;2.00;;
6860;SDS011;3469;47.060;15.460;2023-05-16T03:29:00;2.90;;;2.17;;
6860;SDS011;3469;47.060;15.460;2023-05-16T03:31:29;2.17;;;1.90;;
6860;SDS011;3469;47.060;15.460;2023-05-16T03:33:58;4.70;;;2.37;;
6860;SDS011;3469;47.060;15.460;2023-05-16T03:36:26;3.60;;;2.07;;
6860;SDS011;3469;47.060;15.460;2023-05-16T03:38:55;6.23;;;3.10;;
6860;SDS011;3469;47.060;15.460;2023-05-16T03:41:24;3.07;;;2.27;;
6860;SDS011;3469;47.060;15.460;2023-05-16T03:43:53;4.73;;;2.30;;
6860;SDS011;3469;47.060;15.460;2023-05-16T03:46:21;6.30;;;2.37;;
6860;SDS011;3469;47.060;15.460;2023-05-16T03:48:49;4.30;;;2.50;;
6860;SDS011;3469;47.060;15.460;2023-05-16T03:51:18;4.83;;;2.20;;
6860;SDS011;3469;47.060;15.460;2023-05-16T03:53:47;3.90;;;1.97;;
6860;SDS011;3469;47.060;15.460;2023-05-16T03:56:15;3.80;;;2.30;;
6860;SDS011;3469;47.060;15.460;2023-05-16T03:58:44;3.00;;;1.97;;
6860;SDS011;3469;47.060;15.460;2023-05-16T04:01:13;3.20;;;2.43;;
6860;SDS011;3469;47.060;15.460;2023-05-16T04:03:41;2.70;;;1.90;;
6860;SDS011;3469;47.060;15.460;2023-05-16T04:06:09;2.93;;;2.03;;
6860;SDS011;3469;47.060;15.460;2023-05-16T04:08:38;3.10;;;2.43;;
6860;SDS011;3469;47.060;15.460;2023-05-16T04:11:06;3.80;;;2.77;;
6860;SDS011;3469;47.060;15.460;2023-05-16T04:13:34;3.00;;;2.30;;
6860;SDS011;3469;47.060;15.460;2023-05-16T04:16:05;2.63;;;2.43;;
6860;SDS011;3469;47.060;15.460;2023-05-16T04:18:33;2.60;;;2.40;;
6860;SDS011;3469;47.060;15.460;2023-05-16T04:21:02;5.87;;;2.87;;
6860;SDS011;3469;47.060;15.460;2023-05-16T04:23:31;8.33;;;3.63;;
6860;SDS011;3469;47.060;15.460;2023-05-16T04:25:59;4.80;;;3.10;;
6860;SDS011;3469;47.060;15.460;2023-05-16T04:28:27;3.77;;;2.90;;
6860;SDS011;3469;47.060;15.460;2023-05-16T04:30:55;4.97;;;2.43;;
6860;SDS011;3469;47.060;15.460;2023-05-16T04:33:25;4.57;;;3.27;;
6860;SDS011;3469;47.060;15.460;2023-05-16T04:35:53;3.40;;;2.70;;
6860;SDS011;3469;47.060;15.460;2023-05-16T04:38:23;2.77;;;2.37;;
6860;SDS011;3469;47.060;15.460;2023-05-16T04:40:52;2.97;;;2.60;;
6860;SDS011;3469;47.060;15.460;2023-05-16T04:43:20;4.47;;;3.03;;
6860;SDS011;3469;47.060;15.460;2023-05-16T04:45:48;4.50;;;2.80;;
6860;SDS011;3469;47.060;15.460;2023-05-16T04:48:20;3.47;;;2.60;;
6860;SDS011;3469;47.060;15.460;2023-05-16T04:50:49;4.30;;;3.20;;
6860;SDS011;3469;47.060;15.460;2023-05-16T04:53:18;4.83;;;3.17;;
6860;SDS011;3469;47.060;15.460;2023-05-16T04:55:46;4.23;;;2.67;;
6860;SDS011;3469;47.060;15.460;2023-05-16T04:58:14;3.73;;;2.80;;
6860;SDS011;3469;47.060;15.460;2023-05-16T05:00:42;3.30;;;2.50;;
6860;SDS011;3469;47.060;15.460;2023-05-16T05:03:10;2.80;;;2.10;;
6860;SDS011;3469;47.060;15.460;2023-05-16T05:05:40;4.13;;;3.27;;
6860;SDS011;3469;47.060;15.460;2023-05-16T05:08:14;4.83;;;2.97;;
6860;SDS011;3469;47.060;15.460;2023-05-16T05:10:46;3.20;;;2.40;;
6860;SDS011;3469;47.060;15.460;2023-05-16T05:13:18;3.10;;;2.70;;
6860;SDS011;3469;47.060;15.460;2023-05-16T05:15:47;5.50;;;3.20;;
6860;SDS011;3469;47.060;15.460;2023-05-16T05:18:23;4.70;;;2.93;;
6860;SDS011;3469;47.060;15.460;2023-05-16T05:21:00;5.60;;;3.60;;
6860;SDS011;3469;47.060;15.460;2023-05-16T05:23:31;3.20;;;2.63;;
6860;SDS011;3469;47.060;15.460;2023-05-16T05:26:00;4.80;;;2.47;;
6860;SDS011;3469;47.060;15.460;2023-05-16T05:28:28;3.93;;;2.90;;
6860;SDS011;3469;47.060;15.460;2023-05-16T05:30:57;2.63;;;2.03;;
6860;SDS011;3469;47.060;15.460;2023-05-16T05:33:27;3.93;;;3.17;;
6860;SDS011;3469;47.060;15.460;2023-05-16T05:35:55;3.43;;;2.47;;
6860;SDS011;3469;47.060;15.460;2023-05-16T05:38:24;3.27;;;2.53;;
6860;SDS011;3469;47.060;15.460;2023-05-16T05:40:53;3.80;;;2.83;;
6860;SDS011;3469;47.060;15.460;2023-05-16T05:43:22;3.00;;;2.50;;
6860;SDS011;3469;47.060;15.460;2023-05-16T05:45:50;4.10;;;3.37;;
6860;SDS011;3469;47.060;15.460;2023-05-16T05:48:19;3.10;;;2.73;;
6860;SDS011;3469;47.060;15.460;2023-05-16T05:50:48;6.23;;;3.47;;
6860;SDS011;3469;47.060;15.460;2023-05-16T05:53:16;4.10;;;2.83;;
6860;SDS011;3469;47.060;15.460;2023-05-16T05:55:44;4.13;;;3.27;;
6860;SDS011;3469;47.060;15.460;2023-05-16T05:58:14;2.90;;;2.20;;
6860;SDS011;3469;47.060;15.460;2023-05-16T06:00:43;5.10;;;3.70;;
6860;SDS011;3469;47.060;15.460;2023-05-16T06:03:11;6.07;;;3.90;;
6860;SDS011;3469;47.060;15.460;2023-05-16T06:05:40;4.00;;;3.30;;
6860;SDS011;3469;47.060;15.460;2023-05-16T06:08:08;4.40;;;3.97;;
6860;SDS011;3469;47.060;15.460;2023-05-16T06:10:36;3.77;;;3.40;;
6860;SDS011;3469;47.060;15.460;2023-05-16T06:13:05;4.63;;;3.70;;
6860;SDS011;3469;47.060;15.460;2023-05-16T06:15:34;4.50;;;3.73;;
6860;SDS011;3469;47.060;15.460;2023-05-16T06:18:03;5.50;;;3.77;;
6860;SDS011;3469;47.060;15.460;2023-05-16T06:20:31;6.03;;;3.60;;
6860;SDS011;3469;47.060;15.460;2023-05-16T06:23:00;3.40;;;2.97;;
6860;SDS011;3469;47.060;15.460;2023-05-16T06:25:28;4.60;;;3.47;;
6860;SDS011;3469;47.060;15.460;2023-05-16T06:27:56;5.23;;;3.97;;
6860;SDS011;3469;47.060;15.460;2023-05-16T06:30:24;4.30;;;3.80;;
6860;SDS011;3469;47.060;15.460;2023-05-16T06:32:54;4.30;;;3.90;;
6860;SDS011;3469;47.060;15.460;2023-05-16T06:35:22;4.90;;;4.00;;
6860;SDS011;3469;47.060;15.460;2023-05-16T06:37:51;5.93;;;4.90;;
6860;SDS011;3469;47.060;15.460;2023-05-16T06:40:19;5.23;;;4.23;;
6860;SDS011;3469;47.060;15.460;2023-05-16T06:42:47;5.30;;;4.80;;
6860;SDS011;3469;47.060;15.460;2023-05-16T06:45:15;6.23;;;4.77;;
6860;SDS011;3469;47.060;15.460;2023-05-16T06:47:44;6.03;;;5.43;;
6860;SDS011;3469;47.060;15.460;2023-05-16T06:50:14;6.70;;;6.03;;
6860;SDS011;3469;47.060;15.460;2023-05-16T06:52:42;8.27;;;5.60;;
6860;SDS011;3469;47.060;15.460;2023-05-16T06:55:10;9.10;;;6.10;;
6860;SDS011;3469;47.060;15.460;2023-05-16T06:57:39;10.13;;;6.50;;
6860;SDS011;3469;47.060;15.460;2023-05-16T07:00:07;7.03;;;5.90;;
6860;SDS011;3469;47.060;15.460;2023-05-16T07:02:36;8.37;;;5.20;;
6860;SDS011;3469;47.060;15.460;2023-05-16T07:05:05;8.37;;;4.67;;
6860;SDS011;3469;47.060;15.460;2023-05-16T07:07:35;11.57;;;5.10;;
6860;SDS011;3469;47.060;15.460;2023-05-16T07:10:03;6.00;;;5.20;;
6860;SDS011;3469;47.060;15.460;2023-05-16T07:12:34;8.80;;;5.87;;
6860;SDS011;3469;47.060;15.460;2023-05-16T07:15:03;6.70;;;5.10;;
6860;SDS011;3469;47.060;15.460;2023-05-16T07:17:32;9.70;;;5.80;;
6860;SDS011;3469;47.060;15.460;2023-05-16T07:20:01;9.30;;;5.77;;
6860;SDS011;3469;47.060;15.460;2023-05-16T07:22:31;11.73;;;6.10;;
6860;SDS011;3469;47.060;15.460;2023-05-16T07:25:01;6.73;;;5.03;;
6860;SDS011;3469;47.060;15.460;2023-05-16T07:27:30;6.57;;;5.17;;
6860;SDS011;3469;47.060;15.460;2023-05-16T07:29:58;10.03;;;6.53;;
6860;SDS011;3469;47.060;15.460;2023-05-16T07:32:26;9.33;;;6.00;;
6860;SDS011;3469;47.060;15.460;2023-05-16T07:34:55;7.53;;;4.70;;
6860;SDS011;3469;47.060;15.460;2023-05-16T07:37:23;9.03;;;6.00;;
6860;SDS011;3469;47.060;15.460;2023-05-16T07:39:51;5.50;;;4.80;;
6860;SDS011;3469;47.060;15.460;2023-05-16T07:42:23;7.73;;;5.53;;
6860;SDS011;3469;47.060;15.460;2023-05-16T07:44:52;11.17;;;6.30;;
6860;SDS011;3469;47.060;15.460;2023-05-16T07:47:20;6.97;;;5.20;;
6860;SDS011;3469;47.060;15.460;2023-05-16T07:49:49;8.50;;;5.70;;
6860;SDS011;3469;47.060;15.460;2023-05-16T07:52:17;6.77;;;5.13;;
6860;SDS011;3469;47.060;15.460;2023-05-16T07:54:45;6.10;;;4.07;;
6860;SDS011;3469;47.060;15.460;2023-05-16T07:57:14;6.80;;;5.30;;
6860;SDS011;3469;47.060;15.460;2023-05-16T07:59:43;5.90;;;4.43;;
6860;SDS011;3469;47.060;15.460;2023-05-16T08:02:12;5.07;;;4.20;;
6860;SDS011;3469;47.060;15.460;2023-05-16T08:04:41;5.03;;;3.60;;
6860;SDS011;3469;47.060;15.460;2023-05-16T08:07:09;7.97;;;6.10;;
6860;SDS011;3469;47.060;15.460;2023-05-16T08:09:37;7.40;;;4.90;;
6860;SDS011;3469;47.060;15.460;2023-05-16T08:12:06;7.17;;;5.73;;
6860;SDS011;3469;47.060;15.460;2023-05-16T08:14:35;7.33;;;6.17;;
6860;SDS011;3469;47.060;15.460;2023-05-16T08:17:06;9.27;;;6.30;;
6860;SDS011;3469;47.060;15.460;2023-05-16T08:19:34;6.60;;;5.47;;
6860;SDS011;3469;47.060;15.460;2023-05-16T08:22:02;7.00;;;5.90;;
6860;SDS011;3469;47.060;15.460;2023-05-16T08:24:34;7.97;;;6.13;;
6860;SDS011;3469;47.060;15.460;2023-05-16T08:27:03;8.53;;;3.13;;
6860;SDS011;3469;47.060;15.460;2023-05-16T08:29:32;6.30;;;3.77;;
6860;SDS011;3469;47.060;15.460;2023-05-16T08:32:00;5.20;;;4.20;;
6860;SDS011;3469;47.060;15.460;2023-05-16T08:34:31;6.10;;;5.27;;
6860;SDS011;3469;47.060;15.460;2023-05-16T08:36:59;6.70;;;5.50;;
6860;SDS011;3469;47.060;15.460;2023-05-16T08:39:27;8.90;;;6.67;;
6860;SDS011;3469;47.060;15.460;2023-05-16T08:41:56;6.47;;;5.87;;
6860;SDS011;3469;47.060;15.460;2023-05-16T08:44:28;10.00;;;7.20;;
6860;SDS011;3469;47.060;15.460;2023-05-16T08:46:56;8.10;;;6.50;;
6860;SDS011;3469;47.060;15.460;2023-05-16T08:49:26;8.80;;;6.63;;
6860;SDS011;3469;47.060;15.460;2023-05-16T08:51:56;8.80;;;6.47;;
6860;SDS011;3469;47.060;15.460;2023-05-16T08:54:26;8.77;;;6.23;;
6860;SDS011;3469;47.060;15.460;2023-05-16T08:56:54;8.40;;;5.43;;
6860;SDS011;3469;47.060;15.460;2023-05-16T08:59:23;5.93;;;4.27;;
6860;SDS011;3469;47.060;15.460;2023-05-16T09:01:52;5.47;;;3.80;;
6860;SDS011;3469;47.060;15.460;2023-05-16T09:04:22;5.30;;;4.13;;
6860;SDS011;3469;47.060;15.460;2023-05-16T09:06:53;7.30;;;5.97;;
6860;SDS011;3469;47.060;15.460;2023-05-16T09:09:23;8.60;;;4.90;;
6860;SDS011;3469;47.060;15.460;2023-05-16T09:11:51;11.20;;;6.80;;
6860;SDS011;3469;47.060;15.460;2023-05-16T09:14:19;6.20;;;4.80;;
6860;SDS011;3469;47.060;15.460;2023-05-16T09:17:01;7.93;;;6.33;;
6860;SDS011;3469;47.060;15.460;2023-05-16T09:19:37;5.53;;;2.53;;
6860;SDS011;3469;47.060;15.460;2023-05-16T09:22:07;8.80;;;5.80;;
6860;SDS011;3469;47.060;15.460;2023-05-16T09:24:41;5.43;;;4.13;;
6860;SDS011;3469;47.060;15.460;2023-05-16T09:27:11;5.67;;;4.20;;
6860;SDS011;3469;47.060;15.460;2023-05-16T09:29:40;4.97;;;3.93;;
6860;SDS011;3469;47.060;15.460;2023-05-16T09:32:10;8.00;;;5.10;;
6860;SDS011;3469;47.060;15.460;2023-05-16T09:34:42;3.57;;;2.80;;
6860;SDS011;3469;47.060;15.460;2023-05-16T09:37:11;6.70;;;5.43;;
6860;SDS011;3469;47.060;15.460;2023-05-16T09:39:40;9.97;;;5.60;;
6860;SDS011;3469;47.060;15.460;2023-05-16T09:42:13;5.17;;;4.10;;
6860;SDS011;3469;47.060;15.460;2023-05-16T09:44:44;6.33;;;4.50;;
6860;SDS011;3469;47.060;15.460;2023-05-16T09:47:13;6.43;;;4.80;;
6860;SDS011;3469;47.060;15.460;2023-05-16T09:49:42;4.63;;;3.20;;
6860;SDS011;3469;47.060;15.460;2023-05-16T09:52:12;7.73;;;4.53;;
6860;SDS011;3469;47.060;15.460;2023-05-16T09:54:42;9.57;;;6.50;;
6860;SDS011;3469;47.060;15.460;2023-05-16T09:57:10;9.50;;;5.87;;
6860;SDS011;3469;47.060;15.460;2023-05-16T09:59:38;8.23;;;5.60;;
6860;SDS011;3469;47.060;15.460;2023-05-16T10:02:07;11.60;;;5.60;;
6860;SDS011;3469;47.060;15.460;2023-05-16T10:04:35;7.30;;;3.07;;
6860;SDS011;3469;47.060;15.460;2023-05-16T10:07:04;5.33;;;3.70;;
6860;SDS011;3469;47.060;15.460;2023-05-16T10:09:35;5.67;;;5.10;;
6860;SDS011;3469;47.060;15.460;2023-05-16T10:12:07;7.53;;;5.40;;
6860;SDS011;3469;47.060;15.460;2023-05-16T10:14:36;3.10;;;2.73;;
6860;SDS011;3469;47.060;15.460;2023-05-16T10:17:06;7.00;;;5.33;;
6860;SDS011;3469;47.060;15.460;2023-05-16T10:19:36;6.50;;;4.57;;
6860;SDS011;3469;47.060;15.460;2023-05-16T10:22:06;8.50;;;6.23;;
6860;SDS011;3469;47.060;15.460;2023-05-16T10:24:36;4.10;;;3.07;;
6860;SDS011;3469;47.060;15.460;2023-05-16T10:27:07;3.63;;;3.33;;
6860;SDS011;3469;47.060;15.460;2023-05-16T10:29:36;6.60;;;4.90;;
6860;SDS011;3469;47.060;15.460;2023-05-16T10:32:19;2.63;;;2.43;;
6860;SDS011;3469;47.060;15.460;2023-05-16T10:34:49;3.50;;;2.33;;
6860;SDS011;3469;47.060;15.460;2023-05-16T10:37:18;3.50;;;3.20;;
6860;SDS011;3469;47.060;15.460;2023-05-16T10:39:46;4.43;;;3.20;;
6860;SDS011;3469;47.060;15.460;2023-05-16T10:42:16;6.27;;;5.23;;
6860;SDS011;3469;47.060;15.460;2023-05-16T10:44:46;4.70;;;4.20;;
6860;SDS011;3469;47.060;15.460;2023-05-16T10:47:30;5.40;;;3.60;;
6860;SDS011;3469;47.060;15.460;2023-05-16T10:49:58;10.80;;;4.80;;
6860;SDS011;3469;47.060;15.460;2023-05-16T10:52:31;5.07;;;4.57;;
6860;SDS011;3469;47.060;15.460;2023-05-16T10:55:01;6.13;;;3.87;;
6860;SDS011;3469;47.060;15.460;2023-05-16T10:57:31;7.37;;;4.70;;
6860;SDS011;3469;47.060;15.460;2023-05-16T11:00:00;4.90;;;4.33;;
6860;SDS011;3469;47.060;15.460;2023-05-16T11:02:30;6.67;;;4.10;;
6860;SDS011;3469;47.060;15.460;2023-05-16T11:05:01;7.77;;;6.50;;
6860;SDS011;3469;47.060;15.460;2023-05-16T11:07:30;7.57;;;6.43;;
6860;SDS011;3469;47.060;15.460;2023-05-16T11:10:06;9.40;;;6.53;;
6860;SDS011;3469;47.060;15.460;2023-05-16T11:12:50;5.23;;;3.47;;
6860;SDS011;3469;47.060;15.460;2023-05-16T11:15:22;5.20;;;4.00;;
6860;SDS011;3469;47.060;15.460;2023-05-16T11:18:02;6.70;;;4.77;;
6860;SDS011;3469;47.060;15.460;2023-05-16T11:20:32;5.83;;;4.77;;
6860;SDS011;3469;47.060;15.460;2023-05-16T11:25:53;4.47;;;2.43;;
6860;SDS011;3469;47.060;15.460;2023-05-16T11:28:24;7.30;;;6.00;;
6860;SDS011;3469;47.060;15.460;2023-05-16T11:30:54;6.87;;;5.37;;
6860;SDS011;3469;47.060;15.460;2023-05-16T11:33:25;4.53;;;3.27;;
6860;SDS011;3469;47.060;15.460;2023-05-16T11:35:59;7.43;;;5.27;;
6860;SDS011;3469;47.060;15.460;2023-05-16T11:38:41;6.13;;;5.47;;
6860;SDS011;3469;47.060;15.460;2023-05-16T11:41:10;4.60;;;3.30;;
6860;SDS011;3469;47.060;15.460;2023-05-16T11:43:43;4.30;;;2.53;;
6860;SDS011;3469;47.060;15.460;2023-05-16T11:46:12;5.93;;;4.40;;
6860;SDS011;3469;47.060;15.460;2023-05-16T11:48:41;3.70;;;2.60;;
6860;SDS011;3469;47.060;15.460;2023-05-16T11:51:13;3.57;;;3.27;;
6860;SDS011;3469;47.060;15.460;2023-05-16T11:53:47;3.83;;;2.50;;
6860;SDS011;3469;47.060;15.460;2023-05-16T11:56:16;3.70;;;2.87;;
6860;SDS011;3469;47.060;15.460;2023-05-16T11:58:46;5.17;;;3.40;;
6860;SDS011;3469;47.060;15.460;2023-05-16T12:01:16;3.27;;;2.23;;
6860;SDS011;3469;47.060;15.460;2023-05-16T12:03:48;2.23;;;1.70;;
6860;SDS011;3469;47.060;15.460;2023-05-16T12:06:22;7.20;;;4.27;;
6860;SDS011;3469;47.060;15.460;2023-05-16T12:08:50;3.73;;;3.10;;
6860;SDS011;3469;47.060;15.460;2023-05-16T12:11:19;2.97;;;2.00;;
6860;SDS011;3469;47.060;15.460;2023-05-16T12:13:51;3.23;;;2.67;;
6860;SDS011;3469;47.060;15.460;2023-05-16T12:16:21;1.80;;;1.70;;
6860;SDS011;3469;47.060;15.460;2023-05-16T12:18:49;4.60;;;3.27;;
6860;SDS011;3469;47.060;15.460;2023-05-16T12:21:19;4.00;;;2.30;;
6860;SDS011;3469;47.060;15.460;2023-05-16T12:23:49;1.63;;;1.53;;
6860;SDS011;3469;47.060;15.460;2023-05-16T12:26:22;1.40;;;1.23;;
6860;SDS011;3469;47.060;15.460;2023-05-16T12:28:54;2.70;;;2.00;;
6860;SDS011;3469;47.060;15.460;2023-05-16T12:31:26;4.30;;;2.70;;
6860;SDS011;3469;47.060;15.460;2023-05-16T12:33:58;2.43;;;2.00;;
6860;SDS011;3469;47.060;15.460;2023-05-16T12:36:30;3.60;;;1.60;;
6860;SDS011;3469;47.060;15.460;2023-05-16T12:38:59;1.70;;;1.27;;
6860;SDS011;3469;47.060;15.460;2023-05-16T12:41:29;2.83;;;1.73;;
6860;SDS011;3469;47.060;15.460;2023-05-16T12:44:12;4.43;;;3.93;;
6860;SDS011;3469;47.060;15.460;2023-05-16T12:46:43;2.60;;;2.10;;
6860;SDS011;3469;47.060;15.460;2023-05-16T12:49:12;5.37;;;3.50;;
6860;SDS011;3469;47.060;15.460;2023-05-16T12:51:47;2.50;;;1.97;;
6860;SDS011;3469;47.060;15.460;2023-05-16T12:54:16;3.70;;;2.73;;
6860;SDS011;3469;47.060;15.460;2023-05-16T12:56:44;3.53;;;2.13;;
6860;SDS011;3469;47.060;15.460;2023-05-16T12:59:14;7.23;;;2.43;;
6860;SDS011;3469;47.060;15.460;2023-05-16T13:01:43;4.63;;;2.70;;
6860;SDS011;3469;47.060;15.460;2023-05-16T13:04:12;4.40;;;3.03;;
6860;SDS011;3469;47.060;15.460;2023-05-16T13:06:45;2.23;;;1.73;;
6860;SDS011;3469;47.060;15.460;2023-05-16T13:09:16;2.67;;;2.23;;
6860;SDS011;3469;47.060;15.460;2023-05-16T13:11:44;1.70;;;1.43;;
6860;SDS011;3469;47.060;15.460;2023-05-16T13:14:15;1.70;;;1.20;;
6860;SDS011;3469;47.060;15.460;2023-05-16T13:16:44;1.57;;;1.47;;
6860;SDS011;3469;47.060;15.460;2023-05-16T13:19:12;4.40;;;2.10;;
6860;SDS011;3469;47.060;15.460;2023-05-16T13:21:40;2.33;;;2.03;;
6860;SDS011;3469;47.060;15.460;2023-05-16T13:24:09;1.87;;;1.67;;
6860;SDS011;3469;47.060;15.460;2023-05-16T13:26:37;1.80;;;1.63;;
6860;SDS011;3469;47.060;15.460;2023-05-16T13:29:05;2.80;;;1.77;;
6860;SDS011;3469;47.060;15.460;2023-05-16T13:31:38;0.80;;;0.70;;
6860;SDS011;3469;47.060;15.460;2023-05-16T13:34:06;2.00;;;1.60;;
6860;SDS011;3469;47.060;15.460;2023-05-16T13:36:35;2.10;;;1.90;;
6860;SDS011;3469;47.060;15.460;2023-05-16T13:39:19;3.10;;;1.87;;
6860;SDS011;3469;47.060;15.460;2023-05-16T13:41:47;2.40;;;1.10;;
6860;SDS011;3469;47.060;15.460;2023-05-16T13:44:16;1.33;;;1.23;;
6860;SDS011;3469;47.060;15.460;2023-05-16T13:46:47;1.30;;;1.13;;
6860;SDS011;3469;47.060;15.460;2023-05-16T13:49:16;1.67;;;1.13;;
6860;SDS011;3469;47.060;15.460;2023-05-16T13:51:44;1.40;;;1.30;;
6860;SDS011;3469;47.060;15.460;2023-05-16T13:54:12;2.70;;;2.00;;
6860;SDS011;3469;47.060;15.460;2023-05-16T13:56:41;2.30;;;1.80;;
6860;SDS011;3469;47.060;15.460;2023-05-16T13:59:09;3.13;;;1.70;;
6860;SDS011;3469;47.060;15.460;2023-05-16T14:01:47;1.70;;;1.50;;
6860;SDS011;3469;47.060;15.460;2023-05-16T14:04:16;1.00;;;0.80;;
6860;SDS011;3469;47.060;15.460;2023-05-16T14:06:44;2.30;;;2.10;;
6860;SDS011;3469;47.060;15.460;2023-05-16T14:09:13;2.57;;;1.90;;
6860;SDS011;3469;47.060;15.460;2023-05-16T14:11:42;3.00;;;1.87;;
6860;SDS011;3469;47.060;15.460;2023-05-16T14:14:10;5.63;;;2.07;;
6860;SDS011;3469;47.060;15.460;2023-05-16T14:16:39;2.30;;;1.97;;
6860;SDS011;3469;47.060;15.460;2023-05-16T14:19:12;1.80;;;1.43;;
6860;SDS011;3469;47.060;15.460;2023-05-16T14:21:45;2.63;;;2.20;;
6860;SDS011;3469;47.060;15.460;2023-05-16T14:24:13;2.40;;;2.20;;
6860;SDS011;3469;47.060;15.460;2023-05-16T14:26:41;3.53;;;1.90;;
6860;SDS011;3469;47.060;15.460;2023-05-16T14:29:10;3.00;;;2.70;;
6860;SDS011;3469;47.060;15.460;2023-05-16T14:31:39;3.30;;;2.03;;
6860;SDS011;3469;47.060;15.460;2023-05-16T14:34:08;1.70;;;1.47;;
6860;SDS011;3469;47.060;15.460;2023-05-16T14:36:39;2.50;;;2.30;;
6860;SDS011;3469;47.060;15.460;2023-05-16T14:39:07;1.00;;;0.90;;
6860;SDS011;3469;47.060;15.460;2023-05-16T14:41:36;5.03;;;3.10;;
6860;SDS011;3469;47.060;15.460;2023-05-16T14:44:05;2.47;;;1.30;;
6860;SDS011;3469;47.060;15.460;2023-05-16T14:46:34;2.73;;;2.50;;
6860;SDS011;3469;47.060;15.460;2023-05-16T14:49:03;5.87;;;2.47;;
6860;SDS011;3469;47.060;15.460;2023-05-16T14:51:32;0.93;;;0.80;;
6860;SDS011;3469;47.060;15.460;2023-05-16T14:54:04;2.67;;;2.47;;
6860;SDS011;3469;47.060;15.460;2023-05-16T14:56:33;2.93;;;2.60;;
6860;SDS011;3469;47.060;15.460;2023-05-16T14:59:01;3.37;;;2.70;;
6860;SDS011;3469;47.060;15.460;2023-05-16T15:01:30;3.53;;;3.20;;
6860;SDS011;3469;47.060;15.460;2023-05-16T15:04:01;3.00;;;2.77;;
6860;SDS011;3469;47.060;15.460;2023-05-16T15:06:30;3.37;;;2.60;;
6860;SDS011;3469;47.060;15.460;2023-05-16T15:08:59;3.00;;;2.40;;
6860;SDS011;3469;47.060;15.460;2023-05-16T15:11:33;3.87;;;2.90;;
6860;SDS011;3469;47.060;15.460;2023-05-16T15:14:03;4.03;;;3.00;;
6860;SDS011;3469;47.060;15.460;2023-05-16T15:16:37;3.17;;;2.63;;
6860;SDS011;3469;47.060;15.460;2023-05-16T15:19:07;2.60;;;2.30;;